Siem Pilot — LCPF — position and weather

sailwx.info

Track history (hours):
 
Tides and Currents Weather Stations Pressure Air Temp Water Temp Dewpoint Dewpoint Depression Visibility Wind Speed Wind Dir Waves Ship Positions

Siem Pilot

Last reported at 2016-Jul-23 17:21 UTC. Time now 2016-Jul-24 20:31 UTC.
Position N 37°22' E 011°20'.

Length 88 m; draft 5.9 m.

Type: Law enforcement. MMSI: 257458000.

Date/timePositionNaut miles runAvg speedWind from/ knotsBaromVisibWave heightAir tempDewpointWater temp
2016-Jul-23 17:21N 37°22' E 011°20'1614.0
2016-Jul-23 16:11N 37°07' E 011°27'913.7
2016-Jul-23 15:33N 36°59' E 011°31'1414.1
2016-Jul-23 14:33N 36°45' E 011°36'1414.1
2016-Jul-23 13:33N 36°32' E 011°42'1413.6
2016-Jul-23 12:33N 36°19' E 011°47'1413.6
2016-Jul-23 11:33N 36°06' E 011°50'1413.7
2016-Jul-23 10:33N 35°53' E 011°54'1413.9
2016-Jul-23 09:33N 35°39' E 011°57'1414.1
2016-Jul-23 08:34N 35°25' E 012°00'1414.3
2016-Jul-23 07:33N 35°11' E 012°04'1414.4
2016-Jul-23 06:33N 34°57' E 012°07'2814.2
2016-Jul-23 04:34N 34°29' E 012°09'3314.2
2016-Jul-23 02:14N 33°55' E 012°10'914.1
2016-Jul-23 01:34N 33°46' E 012°11'1414.1
2016-Jul-23 00:33N 33°32' E 012°11'1414.0
2016-Jul-22 23:33N 33°18' E 012°12'6 5.5
2016-Jul-22 22:27N 33°12' E 012°11'1 1.1
2016-Jul-22 21:33N 33°12' E 012°12'1 1.0
2016-Jul-22 20:33N 33°12' E 012°13'2 2.2
2016-Jul-22 19:33N 33°10' E 012°13'2 1.7
2016-Jul-22 18:33N 33°08' E 012°14'1 1.0
2016-Jul-22 17:33N 33°08' E 012°15'1 1.0
2016-Jul-22 16:33N 33°08' E 012°16'3 2.2
2016-Jul-22 15:23N 33°10' E 012°18'1 1.2
2016-Jul-22 14:10N 33°11' E 012°19'1 1.2
2016-Jul-22 13:33N 33°11' E 012°20'1 0.8
2016-Jul-22 12:33N 33°10' E 012°20'5 5.3
2016-Jul-22 11:33N 33°05' E 012°19'1 1.0
2016-Jul-22 10:33N 33°04' E 012°19'80 5.0
2016-Jul-21 18:33N 34°21' E 012°45'0 0.3
2016-Jul-21 17:33N 34°21' E 012°44'0 0.2
2016-Jul-21 16:34N 34°21' E 012°44'2 1.8
2016-Jul-21 15:26N 34°21' E 012°47'4 2.3
2016-Jul-21 13:31N 34°20' E 012°52'2 2.4
2016-Jul-21 12:32N 34°20' E 012°55'73 5.5
2016-Jul-20 23:18N 34°38' E 014°20'1013.4
2016-Jul-20 22:33N 34°42' E 014°31'1413.7
2016-Jul-20 21:33N 34°47' E 014°47'1413.7
2016-Jul-20 20:33N 34°53' E 015°02'  
2016-Jul-18 14:10N 37°11' E 015°47'  
2016-Jul-14 21:14N 36°29' E 014°49'7 9.6
2016-Jul-14 20:32N 36°22' E 014°50'11 9.7
2016-Jul-14 19:24N 36°12' E 014°53'1110.1
2016-Jul-14 18:19N 36°01' E 014°56'7 9.1
2016-Jul-14 17:30N 35°54' E 014°57'8 7.8
2016-Jul-14 16:27N 35°46' E 014°54'7 7.3
2016-Jul-14 15:33N 35°40' E 014°51'8 8.0
2016-Jul-14 14:33N 35°33' E 014°45'8 8.1
2016-Jul-14 13:33N 35°27' E 014°39'11 8.1
2016-Jul-14 12:14N 35°18' E 014°31'6 8.2
2016-Jul-14 11:33N 35°14' E 014°27'10 8.2
2016-Jul-14 10:21N 35°06' E 014°19'7 8.4
2016-Jul-14 09:33N 35°01' E 014°14'  
Track history (hours):
 
Tides and Currents Weather Stations Pressure Air Temp Water Temp Dewpoint Dewpoint Depression Visibility Wind Speed Wind Dir Waves Ship Positions

Siem Pilot

Last reported at 2016-Jul-23 17:21 UTC. Time now 2016-Jul-24 20:31 UTC.
Position N 37°22' E 011°20'.

Length 88 m; draft 5.9 m.

Type: Law enforcement. MMSI: 257458000.

Date/timePositionNaut miles runAvg speedWind from/ knotsBaromVisibWave heightAir tempDewpointWater temp
2016-Jul-23 17:21N 37°22' E 011°20'1614.0
2016-Jul-23 16:11N 37°07' E 011°27'913.7
2016-Jul-23 15:33N 36°59' E 011°31'1414.1
2016-Jul-23 14:33N 36°45' E 011°36'1414.1
2016-Jul-23 13:33N 36°32' E 011°42'1413.6
2016-Jul-23 12:33N 36°19' E 011°47'1413.6
2016-Jul-23 11:33N 36°06' E 011°50'1413.7
2016-Jul-23 10:33N 35°53' E 011°54'1413.9
2016-Jul-23 09:33N 35°39' E 011°57'1414.1
2016-Jul-23 08:34N 35°25' E 012°00'1414.3
2016-Jul-23 07:33N 35°11' E 012°04'1414.4
2016-Jul-23 06:33N 34°57' E 012°07'2814.2
2016-Jul-23 04:34N 34°29' E 012°09'3314.2
2016-Jul-23 02:14N 33°55' E 012°10'914.1
2016-Jul-23 01:34N 33°46' E 012°11'1414.1
2016-Jul-23 00:33N 33°32' E 012°11'1414.0
2016-Jul-22 23:33N 33°18' E 012°12'6 5.5
2016-Jul-22 22:27N 33°12' E 012°11'1 1.1
2016-Jul-22 21:33N 33°12' E 012°12'1 1.0
2016-Jul-22 20:33N 33°12' E 012°13'2 2.2
2016-Jul-22 19:33N 33°10' E 012°13'2 1.7
2016-Jul-22 18:33N 33°08' E 012°14'1 1.0
2016-Jul-22 17:33N 33°08' E 012°15'1 1.0
2016-Jul-22 16:33N 33°08' E 012°16'3 2.2
2016-Jul-22 15:23N 33°10' E 012°18'1 1.2
2016-Jul-22 14:10N 33°11' E 012°19'1 1.2
2016-Jul-22 13:33N 33°11' E 012°20'1 0.8
2016-Jul-22 12:33N 33°10' E 012°20'5 5.3
2016-Jul-22 11:33N 33°05' E 012°19'1 1.0
2016-Jul-22 10:33N 33°04' E 012°19'80 5.0
2016-Jul-21 18:33N 34°21' E 012°45'0 0.3
2016-Jul-21 17:33N 34°21' E 012°44'0 0.2
2016-Jul-21 16:34N 34°21' E 012°44'2 1.8
2016-Jul-21 15:26N 34°21' E 012°47'4 2.3
2016-Jul-21 13:31N 34°20' E 012°52'2 2.4
2016-Jul-21 12:32N 34°20' E 012°55'73 5.5
2016-Jul-20 23:18N 34°38' E 014°20'1013.4
2016-Jul-20 22:33N 34°42' E 014°31'1413.7
2016-Jul-20 21:33N 34°47' E 014°47'1413.7
2016-Jul-20 20:33N 34°53' E 015°02'  
2016-Jul-18 14:10N 37°11' E 015°47'  
2016-Jul-14 21:14N 36°29' E 014°49'7 9.6
2016-Jul-14 20:32N 36°22' E 014°50'11 9.7
2016-Jul-14 19:24N 36°12' E 014°53'1110.1
2016-Jul-14 18:19N 36°01' E 014°56'7 9.1
2016-Jul-14 17:30N 35°54' E 014°57'8 7.8
2016-Jul-14 16:27N 35°46' E 014°54'7 7.3
2016-Jul-14 15:33N 35°40' E 014°51'8 8.0
2016-Jul-14 14:33N 35°33' E 014°45'8 8.1
2016-Jul-14 13:33N 35°27' E 014°39'11 8.1
2016-Jul-14 12:14N 35°18' E 014°31'6 8.2
2016-Jul-14 11:33N 35°14' E 014°27'10 8.2
2016-Jul-14 10:21N 35°06' E 014°19'7 8.4
2016-Jul-14 09:33N 35°01' E 014°14'  

Dump ship's entire track history